Flugplatz Bürstadt (UL)

Hier findest Du alle Informationen zum Flugplatz Bürstadt (UL).

Informationen für Piloten zum Flugplatz Bürstadt

Hier findest Du alle relevanten Informationen, die Du als Pilot benötigst, um Bürstadt anzufliegen.

Flugplatz: Bürstadt ICAO-Code: UL Flugplatz
Frequenz Turm: 123,425 Mhz GAFOR Gebiet: 45
Frequenz Ground: 123,425 Mhz Mogas: nein
Platzrunde: N 1000 ft Landegebühr: -
Platzhöhe: - Sunrise: 03:22 Uhr UTC
Pisten: 03/21 - 276 / 330 m x 20 m, GRAS Sunset: 19:38 Uhr UTC

Mitglieder, die in Bürstadt fliegen

Flugwetter am Flugplatz Bürstadt

Die METAR Information stammen aus EDFM (20.53 km entfernt).

METAR Code:
2020/06/28 19:20
EDFM 281920Z 19006KT 9999 -RA FEW033 BKN095 17/14 Q1016

Flugschulen am Flugplatz Bürstadt

Am Flugplatz Bürstadt gibt es leider keine Flugschule.

Benachbarte Flugplätze und Flugschulen

Es gibt 24 weitere Flugplätze in einem Umkreis von 50 km um den Flugplatz Bürstadt.

Jetzt anmelden

Passwort vergessen

Umfrage Archiv

Wären Rettungsgeräte keine Pflicht mehr, würdet Ihr Euer UL trotzdem mit einem ausstatten?

Ja
81.1 %
Nein
18.9 %
Stimmen: 185 | Diskussion
Anzeige: Roland Aircraft
Statistik Alle Mitglieder

Aktuell sind 21 Besucher online, davon 1 Mitglied und 20 Gäste.


Mitglieder online:
hansmaulwurf 

Anzeige: VFR Sprechfunk Simulator


Anzeige: Pocket FMS